sensor_id;sensor_type;location;lat;lon;timestamp;pressure;altitude;pressure_sealevel;temperature;humidity
27304;BME280;14791;52.392;13.092;2023-03-16T00:00:10;101684.16;;;7.50;46.50
27304;BME280;14791;52.392;13.092;2023-03-16T00:02:41;101685.53;;;7.48;46.47
27304;BME280;14791;52.392;13.092;2023-03-16T00:05:11;101692.22;;;7.46;46.38
27304;BME280;14791;52.392;13.092;2023-03-16T00:07:40;101690.89;;;7.46;46.39
27304;BME280;14791;52.392;13.092;2023-03-16T00:10:13;101687.41;;;7.44;46.43
27304;BME280;14791;52.392;13.092;2023-03-16T00:12:41;101695.45;;;7.43;46.42
27304;BME280;14791;52.392;13.092;2023-03-16T00:15:11;101696.83;;;7.41;46.41
27304;BME280;14791;52.392;13.092;2023-03-16T00:17:40;101692.44;;;7.40;46.41
27304;BME280;14791;52.392;13.092;2023-03-16T00:20:11;101691.15;;;7.39;46.43
27304;BME280;14791;52.392;13.092;2023-03-16T00:22:40;101701.82;;;7.37;46.43
27304;BME280;14791;52.392;13.092;2023-03-16T00:25:11;101705.92;;;7.34;46.37
27304;BME280;14791;52.392;13.092;2023-03-16T00:27:41;101709.55;;;7.32;46.39
27304;BME280;14791;52.392;13.092;2023-03-16T00:30:11;101715.84;;;7.29;46.37
27304;BME280;14791;52.392;13.092;2023-03-16T00:32:40;101718.60;;;7.26;46.33
27304;BME280;14791;52.392;13.092;2023-03-16T00:35:09;101710.70;;;7.23;46.29
27304;BME280;14791;52.392;13.092;2023-03-16T00:37:38;101713.94;;;7.19;46.29
27304;BME280;14791;52.392;13.092;2023-03-16T00:40:10;101709.59;;;7.17;46.30
27304;BME280;14791;52.392;13.092;2023-03-16T00:42:42;101713.25;;;7.13;46.32
27304;BME280;14791;52.392;13.092;2023-03-16T00:45:11;101713.39;;;7.08;46.33
27304;BME280;14791;52.392;13.092;2023-03-16T00:47:40;101713.90;;;7.06;46.40
27304;BME280;14791;52.392;13.092;2023-03-16T00:50:11;101707.86;;;7.01;46.43
27304;BME280;14791;52.392;13.092;2023-03-16T00:52:40;101713.25;;;6.99;46.51
27304;BME280;14791;52.392;13.092;2023-03-16T00:55:09;101708.94;;;6.95;46.57
27304;BME280;14791;52.392;13.092;2023-03-16T00:57:38;101712.95;;;6.94;46.57
27304;BME280;14791;52.392;13.092;2023-03-16T01:00:08;101709.05;;;6.92;46.57
27304;BME280;14791;52.392;13.092;2023-03-16T01:02:42;101711.73;;;6.91;46.54
27304;BME280;14791;52.392;13.092;2023-03-16T01:05:13;101710.05;;;6.88;46.58
27304;BME280;14791;52.392;13.092;2023-03-16T01:07:42;101717.19;;;6.86;46.68
27304;BME280;14791;52.392;13.092;2023-03-16T01:10:12;101714.56;;;6.85;46.68
27304;BME280;14791;52.392;13.092;2023-03-16T01:12:41;101719.94;;;6.83;46.67
27304;BME280;14791;52.392;13.092;2023-03-16T01:15:13;101715.53;;;6.82;46.65
27304;BME280;14791;52.392;13.092;2023-03-16T01:17:42;101720.05;;;6.80;46.63
27304;BME280;14791;52.392;13.092;2023-03-16T01:20:12;101719.62;;;6.79;46.66
27304;BME280;14791;52.392;13.092;2023-03-16T01:22:43;101725.39;;;6.78;46.68
27304;BME280;14791;52.392;13.092;2023-03-16T01:25:13;101721.91;;;6.76;46.70
27304;BME280;14791;52.392;13.092;2023-03-16T01:27:42;101717.95;;;6.75;46.74
27304;BME280;14791;52.392;13.092;2023-03-16T01:30:11;101725.92;;;6.75;46.77
27304;BME280;14791;52.392;13.092;2023-03-16T01:32:40;101729.91;;;6.75;46.77
27304;BME280;14791;52.392;13.092;2023-03-16T01:35:11;101722.88;;;6.74;46.77
27304;BME280;14791;52.392;13.092;2023-03-16T01:37:41;101717.95;;;6.75;46.75
27304;BME280;14791;52.392;13.092;2023-03-16T01:40:12;101722.01;;;6.73;46.69
27304;BME280;14791;52.392;13.092;2023-03-16T01:42:46;101724.30;;;6.71;46.64
27304;BME280;14791;52.392;13.092;2023-03-16T01:48:25;101716.00;;;6.67;46.59
27304;BME280;14791;52.392;13.092;2023-03-16T01:50:56;101715.44;;;6.55;46.66
27304;BME280;14791;52.392;13.092;2023-03-16T01:53:25;101718.59;;;6.53;46.68
27304;BME280;14791;52.392;13.092;2023-03-16T01:55:54;101718.69;;;6.50;46.67
27304;BME280;14791;52.392;13.092;2023-03-16T01:58:24;101715.20;;;6.48;46.63
27304;BME280;14791;52.392;13.092;2023-03-16T02:00:53;101714.38;;;6.46;46.62
27304;BME280;14791;52.392;13.092;2023-03-16T02:03:24;101707.84;;;6.43;46.62
27304;BME280;14791;52.392;13.092;2023-03-16T02:06:14;101711.05;;;6.39;46.64
27304;BME280;14791;52.392;13.092;2023-03-16T02:08:44;101709.39;;;6.35;46.65
27304;BME280;14791;52.392;13.092;2023-03-16T02:11:15;101706.97;;;6.28;46.69
27304;BME280;14791;52.392;13.092;2023-03-16T02:14:08;101701.32;;;6.24;46.72
27304;BME280;14791;52.392;13.092;2023-03-16T02:16:38;101699.75;;;6.16;46.79
27304;BME280;14791;52.392;13.092;2023-03-16T02:19:21;101693.22;;;6.13;46.87
27304;BME280;14791;52.392;13.092;2023-03-16T02:21:54;101697.19;;;6.13;46.90
27304;BME280;14791;52.392;13.092;2023-03-16T02:24:21;101691.52;;;6.11;46.95
27304;BME280;14791;52.392;13.092;2023-03-16T02:26:59;101695.93;;;6.10;46.97
27304;BME280;14791;52.392;13.092;2023-03-16T02:32:36;101703.58;;;6.06;47.02
27304;BME280;14791;52.392;13.092;2023-03-16T02:35:07;101702.41;;;6.00;47.06
27304;BME280;14791;52.392;13.092;2023-03-16T02:37:36;101704.66;;;5.99;47.06
27304;BME280;14791;52.392;13.092;2023-03-16T02:40:23;101701.58;;;5.98;47.01
27304;BME280;14791;52.392;13.092;2023-03-16T02:43:05;101702.02;;;5.99;46.99
27304;BME280;14791;52.392;13.092;2023-03-16T02:45:40;101710.95;;;5.95;47.03
27304;BME280;14791;52.392;13.092;2023-03-16T02:48:06;101714.16;;;5.90;47.04
27304;BME280;14791;52.392;13.092;2023-03-16T02:50:41;101719.02;;;5.89;47.09
27304;BME280;14791;52.392;13.092;2023-03-16T02:53:09;101720.88;;;5.87;47.14
27304;BME280;14791;52.392;13.092;2023-03-16T02:55:38;101710.75;;;5.85;47.18
27304;BME280;14791;52.392;13.092;2023-03-16T02:58:07;101716.52;;;5.84;47.17
27304;BME280;14791;52.392;13.092;2023-03-16T03:00:38;101714.73;;;5.85;47.12
27304;BME280;14791;52.392;13.092;2023-03-16T03:03:07;101710.75;;;5.85;47.08
27304;BME280;14791;52.392;13.092;2023-03-16T03:05:37;101719.17;;;5.84;47.05
27304;BME280;14791;52.392;13.092;2023-03-16T03:08:08;101720.53;;;5.83;47.08
27304;BME280;14791;52.392;13.092;2023-03-16T03:10:38;101716.55;;;5.83;47.08
27304;BME280;14791;52.392;13.092;2023-03-16T03:13:08;101715.69;;;5.82;47.04
27304;BME280;14791;52.392;13.092;2023-03-16T03:15:38;101726.72;;;5.82;47.04
27304;BME280;14791;52.392;13.092;2023-03-16T03:18:08;101730.30;;;5.81;47.04
27304;BME280;14791;52.392;13.092;2023-03-16T03:20:37;101737.85;;;5.80;47.04
27304;BME280;14791;52.392;13.092;2023-03-16T03:23:06;101735.63;;;5.79;47.05
27304;BME280;14791;52.392;13.092;2023-03-16T03:25:35;101740.50;;;5.80;47.06
27304;BME280;14791;52.392;13.092;2023-03-16T03:28:05;101739.17;;;5.80;47.00
27304;BME280;14791;52.392;13.092;2023-03-16T03:30:34;101743.16;;;5.80;46.99
27304;BME280;14791;52.392;13.092;2023-03-16T03:33:04;101747.56;;;5.79;46.99
27304;BME280;14791;52.392;13.092;2023-03-16T03:35:33;101746.70;;;5.79;47.01
27304;BME280;14791;52.392;13.092;2023-03-16T03:38:02;101747.63;;;5.78;47.05
27304;BME280;14791;52.392;13.092;2023-03-16T03:40:32;101744.53;;;5.76;47.01
27304;BME280;14791;52.392;13.092;2023-03-16T03:43:03;101745.86;;;5.76;46.96
27304;BME280;14791;52.392;13.092;2023-03-16T03:45:34;101741.95;;;5.75;46.93
27304;BME280;14791;52.392;13.092;2023-03-16T03:48:04;101749.06;;;5.73;46.94
27304;BME280;14791;52.392;13.092;2023-03-16T03:50:34;101747.77;;;5.71;46.96
27304;BME280;14791;52.392;13.092;2023-03-16T03:53:09;101744.28;;;5.69;46.98
27304;BME280;14791;52.392;13.092;2023-03-16T03:55:40;101739.52;;;5.66;47.02
27304;BME280;14791;52.392;13.092;2023-03-16T03:58:09;101740.47;;;5.63;47.08
27304;BME280;14791;52.392;13.092;2023-03-16T04:00:39;101737.82;;;5.63;47.10
27304;BME280;14791;52.392;13.092;2023-03-16T04:03:08;101737.39;;;5.62;47.12
27304;BME280;14791;52.392;13.092;2023-03-16T04:05:38;101740.96;;;5.61;47.11
27304;BME280;14791;52.392;13.092;2023-03-16T04:08:08;101739.17;;;5.62;47.11
27304;BME280;14791;52.392;13.092;2023-03-16T04:10:37;101740.96;;;5.61;47.08
27304;BME280;14791;52.392;13.092;2023-03-16T04:13:06;101740.09;;;5.61;47.08
27304;BME280;14791;52.392;13.092;2023-03-16T04:15:35;101740.12;;;5.59;47.04
27304;BME280;14791;52.392;13.092;2023-03-16T04:18:10;101742.37;;;5.58;47.01
27304;BME280;14791;52.392;13.092;2023-03-16T04:20:39;101741.09;;;5.55;46.99
27304;BME280;14791;52.392;13.092;2023-03-16T04:23:09;101742.91;;;5.53;46.96
27304;BME280;14791;52.392;13.092;2023-03-16T04:25:39;101743.83;;;5.52;46.97
27304;BME280;14791;52.392;13.092;2023-03-16T04:28:09;101739.48;;;5.49;47.00
27304;BME280;14791;52.392;13.092;2023-03-16T04:30:38;101746.13;;;5.48;47.02
27304;BME280;14791;52.392;13.092;2023-03-16T04:33:14;101741.30;;;5.47;47.05
27304;BME280;14791;52.392;13.092;2023-03-16T04:35:43;101742.23;;;5.45;47.10
27304;BME280;14791;52.392;13.092;2023-03-16T04:38:13;101743.16;;;5.44;47.05
27304;BME280;14791;52.392;13.092;2023-03-16T04:40:43;101744.97;;;5.42;47.02
27304;BME280;14791;52.392;13.092;2023-03-16T04:43:14;101752.48;;;5.41;47.06
27304;BME280;14791;52.392;13.092;2023-03-16T04:45:44;101751.65;;;5.39;47.14
27304;BME280;14791;52.392;13.092;2023-03-16T04:48:13;101751.25;;;5.38;47.22
27304;BME280;14791;52.392;13.092;2023-03-16T04:50:43;101751.73;;;5.36;47.26
27304;BME280;14791;52.392;13.092;2023-03-16T04:53:12;101758.35;;;5.36;47.27
27304;BME280;14791;52.392;13.092;2023-03-16T04:55:44;101757.03;;;5.36;47.30
27304;BME280;14791;52.392;13.092;2023-03-16T04:58:14;101756.63;;;5.35;47.32
27304;BME280;14791;52.392;13.092;2023-03-16T05:00:43;101761.95;;;5.33;47.33
27304;BME280;14791;52.392;13.092;2023-03-16T05:03:14;101763.28;;;5.33;47.32
27304;BME280;14791;52.392;13.092;2023-03-16T05:05:46;101765.55;;;5.30;47.28
27304;BME280;14791;52.392;13.092;2023-03-16T05:08:15;101772.17;;;5.30;47.26
27304;BME280;14791;52.392;13.092;2023-03-16T05:10:46;101767.36;;;5.28;47.21
27304;BME280;14791;52.392;13.092;2023-03-16T05:13:16;101767.44;;;5.25;47.21
27304;BME280;14791;52.392;13.092;2023-03-16T05:15:47;101764.38;;;5.24;47.25
27304;BME280;14791;52.392;13.092;2023-03-16T05:18:18;101771.89;;;5.23;47.29
27304;BME280;14791;52.392;13.092;2023-03-16T05:20:51;101768.40;;;5.21;47.28
27304;BME280;14791;52.392;13.092;2023-03-16T05:23:23;101768.88;;;5.19;47.28
27304;BME280;14791;52.392;13.092;2023-03-16T05:25:53;101770.73;;;5.17;47.28
27304;BME280;14791;52.392;13.092;2023-03-16T05:28:24;101774.72;;;5.16;47.24
27304;BME280;14791;52.392;13.092;2023-03-16T05:30:56;101767.26;;;5.14;47.21
27304;BME280;14791;52.392;13.092;2023-03-16T05:33:27;101773.91;;;5.12;47.23
27304;BME280;14791;52.392;13.092;2023-03-16T05:35:57;101769.52;;;5.11;47.27
27304;BME280;14791;52.392;13.092;2023-03-16T05:38:26;101770.01;;;5.09;47.31
27304;BME280;14791;52.392;13.092;2023-03-16T05:40:55;101765.20;;;5.07;47.37
27304;BME280;14791;52.392;13.092;2023-03-16T05:43:28;101771.81;;;5.07;47.47
27304;BME280;14791;52.392;13.092;2023-03-16T05:45:57;101777.11;;;5.07;47.55
27304;BME280;14791;52.392;13.092;2023-03-16T05:48:28;101782.41;;;5.07;47.65
27304;BME280;14791;52.392;13.092;2023-03-16T05:50:58;101774.90;;;5.08;47.69
27304;BME280;14791;52.392;13.092;2023-03-16T05:53:29;101773.52;;;5.09;47.79
27304;BME280;14791;52.392;13.092;2023-03-16T05:56:00;101775.74;;;5.10;47.86
27304;BME280;14791;52.392;13.092;2023-03-16T05:58:31;101778.31;;;5.13;47.97
27304;BME280;14791;52.392;13.092;2023-03-16T06:01:04;101778.23;;;5.16;48.03
27304;BME280;14791;52.392;13.092;2023-03-16T06:03:35;101787.48;;;5.18;48.12
27304;BME280;14791;52.392;13.092;2023-03-16T06:06:05;101784.73;;;5.22;48.18
27304;BME280;14791;52.392;13.092;2023-03-16T06:08:36;101787.70;;;5.26;48.17
27304;BME280;14791;52.392;13.092;2023-03-16T06:11:10;101786.73;;;5.30;48.23
27304;BME280;14791;52.392;13.092;2023-03-16T06:13:40;101789.75;;;5.35;48.28
27304;BME280;14791;52.392;13.092;2023-03-16T06:16:09;101783.05;;;5.38;48.37
27304;BME280;14791;52.392;13.092;2023-03-16T06:18:40;101786.45;;;5.43;48.42
27304;BME280;14791;52.392;13.092;2023-03-16T06:21:10;101783.23;;;5.48;48.41
27304;BME280;14791;52.392;13.092;2023-03-16T06:23:39;101788.86;;;5.53;48.49
27304;BME280;14791;52.392;13.092;2023-03-16T06:26:09;101790.02;;;5.60;48.60
27304;BME280;14791;52.392;13.092;2023-03-16T06:28:39;101795.13;;;5.67;48.67
27304;BME280;14791;52.392;13.092;2023-03-16T06:31:09;101783.93;;;5.74;48.64
27304;BME280;14791;52.392;13.092;2023-03-16T06:33:38;101793.91;;;5.82;48.64
27304;BME280;14791;52.392;13.092;2023-03-16T06:36:08;101797.69;;;5.90;48.68
27304;BME280;14791;52.392;13.092;2023-03-16T06:38:38;101797.52;;;5.98;48.71
27304;BME280;14791;52.392;13.092;2023-03-16T06:41:09;101799.47;;;6.07;48.70
27304;BME280;14791;52.392;13.092;2023-03-16T06:43:39;101803.22;;;6.16;48.69
27304;BME280;14791;52.392;13.092;2023-03-16T06:46:09;101797.77;;;6.23;48.64
27304;BME280;14791;52.392;13.092;2023-03-16T06:48:39;101814.25;;;6.34;48.57
27304;BME280;14791;52.392;13.092;2023-03-16T06:51:09;101806.91;;;6.44;48.66
27304;BME280;14791;52.392;13.092;2023-03-16T06:53:38;101817.28;;;6.53;48.67
27304;BME280;14791;52.392;13.092;2023-03-16T06:56:07;101813.91;;;6.63;48.74
27304;BME280;14791;52.392;13.092;2023-03-16T06:58:38;101804.36;;;6.72;48.72
27304;BME280;14791;52.392;13.092;2023-03-16T07:01:07;101808.08;;;6.81;48.76
27304;BME280;14791;52.392;13.092;2023-03-16T07:03:36;101812.63;;;6.92;48.80
27304;BME280;14791;52.392;13.092;2023-03-16T07:06:06;101814.49;;;7.03;48.86
27304;BME280;14791;52.392;13.092;2023-03-16T07:08:36;101820.33;;;7.16;48.74
27304;BME280;14791;52.392;13.092;2023-03-16T07:11:05;101821.22;;;7.30;48.67
27304;BME280;14791;52.392;13.092;2023-03-16T07:13:36;101819.97;;;7.42;48.62
27304;BME280;14791;52.392;13.092;2023-03-16T07:16:06;101821.70;;;7.58;48.63
27304;BME280;14791;52.392;13.092;2023-03-16T07:18:35;101825.17;;;7.73;48.56
27304;BME280;14791;52.392;13.092;2023-03-16T07:21:09;101817.22;;;7.86;48.43
27304;BME280;14791;52.392;13.092;2023-03-16T07:23:39;101827.41;;;8.00;48.34
27304;BME280;14791;52.392;13.092;2023-03-16T07:26:08;101826.05;;;8.14;48.22
27304;BME280;14791;52.392;13.092;2023-03-16T07:28:40;101832.25;;;8.27;48.03
27304;BME280;14791;52.392;13.092;2023-03-16T07:31:10;101838.50;;;8.40;47.94
27304;BME280;14791;52.392;13.092;2023-03-16T07:33:40;101841.66;;;8.51;47.70
27304;BME280;14791;52.392;13.092;2023-03-16T07:36:11;101844.36;;;8.63;47.51
27304;BME280;14791;52.392;13.092;2023-03-16T07:38:41;101845.28;;;8.73;47.36
27304;BME280;14791;52.392;13.092;2023-03-16T07:41:11;101846.28;;;8.83;47.33
27304;BME280;14791;52.392;13.092;2023-03-16T07:43:41;101845.02;;;8.93;47.28
27304;BME280;14791;52.392;13.092;2023-03-16T07:46:11;101849.09;;;9.03;47.19
27304;BME280;14791;52.392;13.092;2023-03-16T07:48:41;101849.62;;;9.13;47.16
27304;BME280;14791;52.392;13.092;2023-03-16T07:51:13;101843.04;;;9.22;47.04
27304;BME280;14791;52.392;13.092;2023-03-16T07:53:43;101845.36;;;9.31;46.98
27304;BME280;14791;52.392;13.092;2023-03-16T07:56:17;101844.14;;;9.40;46.87
27304;BME280;14791;52.392;13.092;2023-03-16T07:58:48;101848.31;;;9.47;46.75
27304;BME280;14791;52.392;13.092;2023-03-16T08:01:18;101853.33;;;9.54;46.71
27304;BME280;14791;52.392;13.092;2023-03-16T08:03:48;101852.50;;;9.64;46.70
27304;BME280;14791;52.392;13.092;2023-03-16T08:06:17;101858.47;;;9.71;46.66
27304;BME280;14791;52.392;13.092;2023-03-16T08:08:47;101859.44;;;9.80;46.27
27304;BME280;14791;52.392;13.092;2023-03-16T08:11:17;101860.92;;;9.87;46.16
27304;BME280;14791;52.392;13.092;2023-03-16T08:13:54;101866.80;;;9.95;46.26
27304;BME280;14791;52.392;13.092;2023-03-16T08:16:26;101866.23;;;9.99;46.19
27304;BME280;14791;52.392;13.092;2023-03-16T08:18:56;101868.57;;;10.07;46.07
27304;BME280;14791;52.392;13.092;2023-03-16T08:21:25;101865.19;;;10.13;45.92
27304;BME280;14791;52.392;13.092;2023-03-16T08:23:55;101868.87;;;10.21;45.72
27304;BME280;14791;52.392;13.092;2023-03-16T08:26:24;101866.48;;;10.25;45.44
27304;BME280;14791;52.392;13.092;2023-03-16T08:28:55;101870.81;;;10.28;45.20
27304;BME280;14791;52.392;13.092;2023-03-16T08:31:26;101875.19;;;10.30;45.24
27304;BME280;14791;52.392;13.092;2023-03-16T08:33:57;101879.58;;;10.31;45.25
27304;BME280;14791;52.392;13.092;2023-03-16T08:36:27;101880.00;;;10.32;45.25
27304;BME280;14791;52.392;13.092;2023-03-16T08:38:57;101880.34;;;10.35;45.18
27304;BME280;14791;52.392;13.092;2023-03-16T08:41:27;101880.67;;;10.37;45.09
27304;BME280;14791;52.392;13.092;2023-03-16T08:43:59;101881.92;;;10.39;45.11
27304;BME280;14791;52.392;13.092;2023-03-16T08:46:28;101889.83;;;10.42;44.84
27304;BME280;14791;52.392;13.092;2023-03-16T08:48:58;101886.30;;;10.41;44.54
27304;BME280;14791;52.392;13.092;2023-03-16T08:51:28;101890.41;;;10.38;44.41
27304;BME280;14791;52.392;13.092;2023-03-16T08:53:57;101888.83;;;10.34;44.21
27304;BME280;14791;52.392;13.092;2023-03-16T08:56:26;101894.75;;;10.31;44.33
27304;BME280;14791;52.392;13.092;2023-03-16T08:58:57;101884.69;;;10.26;44.31
27304;BME280;14791;52.392;13.092;2023-03-16T09:01:26;101899.86;;;10.25;44.29
27304;BME280;14791;52.392;13.092;2023-03-16T09:03:56;101895.85;;;10.25;44.22
27304;BME280;14791;52.392;13.092;2023-03-16T09:06:25;101893.23;;;10.23;44.23
27304;BME280;14791;52.392;13.092;2023-03-16T09:08:54;101900.24;;;10.26;44.32
27304;BME280;14791;52.392;13.092;2023-03-16T09:11:24;101900.19;;;10.28;44.33
27304;BME280;14791;52.392;13.092;2023-03-16T09:13:54;101891.21;;;10.30;44.17
27304;BME280;14791;52.392;13.092;2023-03-16T09:16:23;101894.17;;;10.34;44.38
27304;BME280;14791;52.392;13.092;2023-03-16T09:18:52;101890.83;;;10.39;44.28
27304;BME280;14791;52.392;13.092;2023-03-16T09:21:22;101895.50;;;10.45;44.16
27304;BME280;14791;52.392;13.092;2023-03-16T09:23:52;101898.70;;;10.53;44.23
27304;BME280;14791;52.392;13.092;2023-03-16T09:26:23;101894.45;;;10.59;43.81
27304;BME280;14791;52.392;13.092;2023-03-16T09:28:52;101899.92;;;10.66;43.64
27304;BME280;14791;52.392;13.092;2023-03-16T09:31:21;101898.30;;;10.72;43.53
27304;BME280;14791;52.392;13.092;2023-03-16T09:33:50;101887.89;;;10.76;43.42
27304;BME280;14791;52.392;13.092;2023-03-16T09:36:18;101901.37;;;10.83;43.24
27304;BME280;14791;52.392;13.092;2023-03-16T09:38:47;101909.53;;;10.91;43.16
27304;BME280;14791;52.392;13.092;2023-03-16T09:47:03;101901.02;;;11.12;43.03
27304;BME280;14791;52.392;13.092;2023-03-16T09:49:41;101890.77;;;11.21;42.94
27304;BME280;14791;52.392;13.092;2023-03-16T10:00:13;101897.70;;;11.63;42.13
27304;BME280;14791;52.392;13.092;2023-03-16T10:05:40;101891.47;;;11.82;41.70
27304;BME280;14791;52.392;13.092;2023-03-16T10:08:15;101888.55;;;11.88;41.54
27304;BME280;14791;52.392;13.092;2023-03-16T10:11:02;101888.87;;;11.99;41.20
27304;BME280;14791;52.392;13.092;2023-03-16T10:16:41;101886.06;;;12.02;41.31
27304;BME280;14791;52.392;13.092;2023-03-16T10:19:41;101887.23;;;12.05;41.50
27304;BME280;14791;52.392;13.092;2023-03-16T10:22:22;101889.62;;;12.11;41.39
27304;BME280;14791;52.392;13.092;2023-03-16T10:25:12;101892.05;;;12.16;41.39
27304;BME280;14791;52.392;13.092;2023-03-16T10:27:42;101885.91;;;12.23;41.29
27304;BME280;14791;52.392;13.092;2023-03-16T10:30:24;101874.91;;;12.29;41.00
27304;BME280;14791;52.392;13.092;2023-03-16T10:32:59;101884.99;;;12.41;40.81
27304;BME280;14791;52.392;13.092;2023-03-16T10:38:06;101878.28;;;12.59;40.22
27304;BME280;14791;52.392;13.092;2023-03-16T10:40:38;101880.66;;;12.65;40.09
27304;BME280;14791;52.392;13.092;2023-03-16T10:43:11;101878.19;;;12.69;39.81
27304;BME280;14791;52.392;13.092;2023-03-16T10:45:42;101885.13;;;12.73;39.62
27304;BME280;14791;52.392;13.092;2023-03-16T10:48:17;101883.17;;;12.76;39.63
27304;BME280;14791;52.392;13.092;2023-03-16T10:50:52;101887.87;;;12.80;39.54
27304;BME280;14791;52.392;13.092;2023-03-16T10:53:29;101879.66;;;12.83;39.34
27304;BME280;14791;52.392;13.092;2023-03-16T10:56:07;101882.76;;;12.84;39.34
27304;BME280;14791;52.392;13.092;2023-03-16T10:58:33;101880.31;;;12.88;39.35
27304;BME280;14791;52.392;13.092;2023-03-16T11:01:14;101883.30;;;12.91;39.19
27304;BME280;14791;52.392;13.092;2023-03-16T11:03:50;101884.09;;;12.93;38.85
27304;BME280;14791;52.392;13.092;2023-03-16T11:06:20;101884.55;;;12.92;39.08
27304;BME280;14791;52.392;13.092;2023-03-16T11:08:50;101884.95;;;12.93;38.95
27304;BME280;14791;52.392;13.092;2023-03-16T11:11:28;101876.36;;;12.95;38.67
27304;BME280;14791;52.392;13.092;2023-03-16T11:14:00;101873.02;;;12.99;38.58
27304;BME280;14791;52.392;13.092;2023-03-16T11:16:40;101869.30;;;13.02;38.66
27304;BME280;14791;52.392;13.092;2023-03-16T11:19:18;101861.08;;;13.05;38.54
27304;BME280;14791;52.392;13.092;2023-03-16T11:32:39;101849.00;;;13.13;37.97
27304;BME280;14791;52.392;13.092;2023-03-16T11:38:20;101844.34;;;13.17;38.06
27304;BME280;14791;52.392;13.092;2023-03-16T11:41:19;101843.76;;;13.19;37.84
27304;BME280;14791;52.392;13.092;2023-03-16T11:43:52;101844.23;;;13.18;38.87
27304;BME280;14791;52.392;13.092;2023-03-16T11:46:28;101833.26;;;13.23;38.84
27304;BME280;14791;52.392;13.092;2023-03-16T11:57:30;101822.19;;;13.54;39.77
27304;BME280;14791;52.392;13.092;2023-03-16T12:00:19;101828.38;;;13.63;38.95
27304;BME280;14791;52.392;13.092;2023-03-16T12:03:13;101830.98;;;13.72;38.91
27304;BME280;14791;52.392;13.092;2023-03-16T12:08:23;101812.66;;;13.87;39.17
27304;BME280;14791;52.392;13.092;2023-03-16T12:10:51;101807.61;;;13.97;39.61
27304;BME280;14791;52.392;13.092;2023-03-16T12:16:28;101813.81;;;14.13;37.98
27304;BME280;14791;52.392;13.092;2023-03-16T12:19:06;101808.33;;;14.15;37.53
27304;BME280;14791;52.392;13.092;2023-03-16T12:21:42;101802.95;;;14.15;37.46
27304;BME280;14791;52.392;13.092;2023-03-16T12:24:21;101795.67;;;14.17;37.08
27304;BME280;14791;52.392;13.092;2023-03-16T12:26:52;101784.76;;;14.20;36.96
27304;BME280;14791;52.392;13.092;2023-03-16T12:33:02;101785.23;;;14.26;36.85
27304;BME280;14791;52.392;13.092;2023-03-16T12:34:58;101782.37;;;14.30;36.91
27304;BME280;14791;52.392;13.092;2023-03-16T12:37:26;101781.61;;;14.35;36.79
27304;BME280;14791;52.392;13.092;2023-03-16T12:40:01;101781.63;;;14.42;36.45
27304;BME280;14791;52.392;13.092;2023-03-16T12:48:25;101764.97;;;14.58;37.17
27304;BME280;14791;52.392;13.092;2023-03-16T12:50:59;101757.07;;;14.77;37.60
27304;BME280;14791;52.392;13.092;2023-03-16T12:53:52;101746.00;;;15.03;38.11
27304;BME280;14791;52.392;13.092;2023-03-16T12:56:09;101744.81;;;15.48;38.47
27304;BME280;14791;52.392;13.092;2023-03-16T12:58:46;101742.91;;;16.23;38.41
27304;BME280;14791;52.392;13.092;2023-03-16T13:01:19;101732.58;;;17.18;38.20
27304;BME280;14791;52.392;13.092;2023-03-16T13:03:49;101736.35;;;18.23;37.55
27304;BME280;14791;52.392;13.092;2023-03-16T13:06:23;101733.05;;;19.21;37.45
27304;BME280;14791;52.392;13.092;2023-03-16T13:08:57;101733.64;;;20.15;35.45
27304;BME280;14791;52.392;13.092;2023-03-16T13:11:28;101734.29;;;20.96;34.03
27304;BME280;14791;52.392;13.092;2023-03-16T13:14:04;101735.30;;;21.64;32.78
27304;BME280;14791;52.392;13.092;2023-03-16T13:16:36;101731.94;;;22.19;32.12
27304;BME280;14791;52.392;13.092;2023-03-16T13:19:24;101732.89;;;22.71;32.06
27304;BME280;14791;52.392;13.092;2023-03-16T13:22:17;101729.59;;;23.19;31.34
27304;BME280;14791;52.392;13.092;2023-03-16T13:24:37;101746.23;;;23.65;31.97
27304;BME280;14791;52.392;13.092;2023-03-16T13:27:22;101750.19;;;24.03;31.17
27304;BME280;14791;52.392;13.092;2023-03-16T13:29:54;101754.94;;;24.45;30.82
27304;BME280;14791;52.392;13.092;2023-03-16T13:32:25;101753.46;;;24.84;30.27
27304;BME280;14791;52.392;13.092;2023-03-16T13:34:59;101751.87;;;25.16;30.77
27304;BME280;14791;52.392;13.092;2023-03-16T13:37:30;101747.52;;;25.32;29.16
27304;BME280;14791;52.392;13.092;2023-03-16T13:40:00;101743.94;;;25.39;28.17
27304;BME280;14791;52.392;13.092;2023-03-16T13:42:32;101741.03;;;25.37;27.68
27304;BME280;14791;52.392;13.092;2023-03-16T13:45:17;101732.30;;;25.29;27.09
27304;BME280;14791;52.392;13.092;2023-03-16T13:47:47;101719.79;;;25.18;27.16
27304;BME280;14791;52.392;13.092;2023-03-16T13:50:17;101725.72;;;25.14;27.50
27304;BME280;14791;52.392;13.092;2023-03-16T13:52:57;101718.78;;;25.19;28.32
27304;BME280;14791;52.392;13.092;2023-03-16T13:55:35;101729.05;;;25.30;28.97
27304;BME280;14791;52.392;13.092;2023-03-16T13:58:04;101724.63;;;25.37;28.61
27304;BME280;14791;52.392;13.092;2023-03-16T14:00:35;101717.46;;;25.44;28.26
27304;BME280;14791;52.392;13.092;2023-03-16T14:03:16;101717.31;;;25.58;28.37
27304;BME280;14791;52.392;13.092;2023-03-16T14:05:46;101714.92;;;25.75;28.06
27304;BME280;14791;52.392;13.092;2023-03-16T14:08:19;101707.91;;;25.85;27.52
27304;BME280;14791;52.392;13.092;2023-03-16T14:10:49;101712.73;;;25.91;27.42
27304;BME280;14791;52.392;13.092;2023-03-16T14:13:36;101713.92;;;26.01;26.98